• Join FlightAware (Why Join?)
  • Login
  • US Flag 
06:11AM EDT


 

Airport Tracker/Info


-or-


 

Live Flight TrackerFlight Track Log ✈ SWA34 ✈ 06-May-2013 ✈ KHOU - KDAL

Flight Track Log - Related Links

Times and Time Zones

All times are in EDT time to prevent confusion due to time zone crossing. See the SWA34 flight status page for this flight to view local times or setup timezone preferences in your user account.

Time Position Orientation Groundspeed Altitude Reporting Facility
EDT Latitude Longitude Course Direction KTS MPH feet Rate Location/Type
03:49PM 29.7061 -95.3350 331° Northwest 227 261 4,600  Level Houston Center
03:49PM 29.7536 -95.3422 352° North 265 305 6,900 3,360 Climbing Houston Center
03:50PM 29.7792 -95.3456 354° North 257 296 8,100 2,400 Climbing Houston Center
03:51PM 29.8525 -95.3589 351° North 264 304 10,500 1,980 Climbing Houston Center
03:52PM 29.9425 -95.3728 352° North 319 367 12,300 1,980 Climbing Houston Center
03:53PM 30.0353 -95.3917 350° North 336 387 14,700 2,340 Climbing Houston Center
03:54PM 30.1522 -95.4111 352° North 352 405 17,200 1,980 Climbing Houston Center
03:56PM 30.2837 -95.4134 350° North  Level FlightAware Approximate
03:56PM 30.3608 -95.4467 350° North 380 437 21,000  Level Houston Center
03:57PM 30.4669 -95.4631 352° North 381 438 22,600 1,440 Climbing Houston Center
03:58PM 30.5756 -95.4853 350° North 394 453 24,000 420 Climbing Houston Center
04:00PM 30.6894 -95.5015 348° North  Level FlightAware Approximate
04:00PM 30.8108 -95.5381 348° North 392 451 24,000  Level Houston Center
04:01PM 30.9172 -95.5628 349° North 389 448 23,000 -1,020 Descending Houston Center
04:02PM 31.0208 -95.5864 349° North 377 434 22,000 -420 Descending Houston Center
04:04PM 31.1986 -95.6233 350° North 372 428 22,000  Level Fort Worth Center
04:05PM 31.3011 -95.6483 348° North 372 428 22,000  Level Fort Worth Center
04:06PM 31.4019 -95.6878 342° North 372 428 22,000  Level Fort Worth Center
04:07PM 31.4925 -95.7542 328° Northwest 372 428 22,000  Level Fort Worth Center
04:08PM 31.5831 -95.8111 332° Northwest 382 440 22,000  Level Fort Worth Center
04:10PM 31.7192 -95.9047 330° Northwest 379 436 22,000  Level Houston Center
04:10PM 31.7578 -95.9328 328° Northwest 382 440 22,000 -1,080 Level Fort Worth Center
04:13PM 32.0119 -96.0950 332° Northwest 374 430 18,700  Descending Houston Center
04:13PM 32.0375 -96.1169 324° Northwest 376 433 22,000 -2,160 Climbing Fort Worth Center
04:15PM 32.2000 -96.2167 333° Northwest 339 390 14,100 -3,480 Descending Dallas / Fort Worth TRACON
04:16PM 32.2667 -96.2667 328° Northwest 318 366 12,400 -1,980 Descending Dallas / Fort Worth TRACON
04:17PM 32.3500 -96.3167 333° Northwest 308 354 10,400 -1,500 Descending Dallas / Fort Worth TRACON
04:18PM 32.4167 -96.3667 328° Northwest 275 316 9,400 -1,080 Descending Dallas / Fort Worth TRACON
04:19PM 32.4667 -96.4167 320° Northwest 248 285 8,300 -1,020 Descending Dallas / Fort Worth TRACON
04:20PM 32.5167 -96.4667 320° Northwest 254 292 7,400 -960 Descending Dallas / Fort Worth TRACON
04:21PM 32.5667 -96.5333 312° West 261 300 6,400 -1,320 Descending Dallas / Fort Worth TRACON
04:22PM 32.6167 -96.5833 320° Northwest 262 302 4,800 -1,560 Descending Dallas / Fort Worth TRACON
04:23PM 32.6833 -96.6667 314° West 263 303 3,200 -1,200 Descending Dallas / Fort Worth TRACON
04:24PM 32.7333 -96.7167 320° Northwest 231 266 2,400 -540 Descending Dallas / Fort Worth TRACON
04:25PM 32.7667 -96.7667 308° West 215 247 2,200 -540 Descending Dallas / Fort Worth TRACON
04:27PM 32.8467 -96.8594 316° Northwest 190 219 800 6,360 Descending Fort Worth Center
04:28PM 32.8825 -96.9014 315° West 190 219 22,000 21,180 Climbing Fort Worth Center